createdAt,value
2023-12-26T00:01:25.743Z,8.00
2023-12-26T00:03:56.637Z,8.00
2023-12-26T00:06:27.914Z,8.10
2023-12-26T00:09:00.397Z,8.10
2023-12-26T00:11:32.005Z,8.20
2023-12-26T00:14:03.859Z,8.20
2023-12-26T00:16:36.737Z,8.20
2023-12-26T00:19:07.719Z,8.20
2023-12-26T00:21:40.220Z,8.30
2023-12-26T00:24:11.971Z,8.30
2023-12-26T00:26:43.638Z,8.30
2023-12-26T00:29:14.488Z,8.30
2023-12-26T00:31:47.170Z,8.30
2023-12-26T00:34:18.860Z,8.30
2023-12-26T00:36:50.110Z,8.30
2023-12-26T00:39:21.246Z,8.40
2023-12-26T00:41:52.500Z,8.40
2023-12-26T00:44:23.449Z,8.40
2023-12-26T00:46:56.267Z,8.30
2023-12-26T00:49:27.077Z,8.30
2023-12-26T00:51:59.380Z,8.40
2023-12-26T00:54:30.131Z,8.40
2023-12-26T00:57:01.679Z,8.40
2023-12-26T00:59:32.517Z,8.30
2023-12-26T01:02:05.744Z,8.30
2023-12-26T01:04:36.415Z,8.40
2023-12-26T01:07:08.837Z,8.40
2023-12-26T01:09:39.555Z,8.30
2023-12-26T01:12:10.965Z,8.30
2023-12-26T01:14:42.541Z,8.30
2023-12-26T01:17:14.975Z,8.30
2023-12-26T01:19:48.681Z,8.30
2023-12-26T01:22:19.685Z,8.30
2023-12-26T01:24:52.422Z,8.40
2023-12-26T01:27:23.391Z,8.50
2023-12-26T01:29:54.122Z,8.60
2023-12-26T01:32:26.704Z,8.60
2023-12-26T01:34:57.216Z,8.70
2023-12-26T01:37:28.570Z,8.80
2023-12-26T01:39:59.327Z,8.80
2023-12-26T01:42:30.714Z,8.80
2023-12-26T01:45:02.105Z,8.70
2023-12-26T01:47:36.361Z,8.70
2023-12-26T01:50:08.800Z,8.60
2023-12-26T01:52:41.216Z,8.70
2023-12-26T01:55:15.183Z,8.60
2023-12-26T01:57:46.433Z,8.60
2023-12-26T02:00:19.526Z,8.60
2023-12-26T02:02:54.251Z,8.50
2023-12-26T02:05:25.829Z,8.50
2023-12-26T02:07:57.512Z,8.50
2023-12-26T02:10:28.527Z,8.60
2023-12-26T02:13:00.877Z,8.60
2023-12-26T02:15:31.737Z,8.60
2023-12-26T02:18:06.627Z,8.60
2023-12-26T02:20:37.751Z,8.60
2023-12-26T02:23:09.832Z,8.60
2023-12-26T02:25:42.511Z,8.60
2023-12-26T02:28:13.909Z,8.50
2023-12-26T02:30:45.993Z,8.60
2023-12-26T02:33:17.903Z,8.60
2023-12-26T02:35:49.354Z,8.50
2023-12-26T02:38:20.981Z,8.60
2023-12-26T02:40:53.771Z,8.50
2023-12-26T02:43:25.240Z,8.50
2023-12-26T02:45:55.989Z,8.50
2023-12-26T02:48:27.254Z,8.60
2023-12-26T02:50:58.156Z,8.50
2023-12-26T02:53:29.339Z,8.50
2023-12-26T02:56:01.683Z,8.60
2023-12-26T02:58:32.995Z,8.60
2023-12-26T03:01:03.583Z,8.50
2023-12-26T03:03:34.655Z,8.50
2023-12-26T03:06:05.830Z,8.60
2023-12-26T03:08:37.018Z,8.60
2023-12-26T03:11:09.280Z,8.60
2023-12-26T03:13:40.255Z,8.60
2023-12-26T03:16:10.816Z,8.60
2023-12-26T03:18:42.022Z,8.60
2023-12-26T03:21:13.078Z,8.70
2023-12-26T03:23:44.291Z,8.70
2023-12-26T03:26:16.584Z,8.80
2023-12-26T03:28:47.588Z,8.80
2023-12-26T03:31:18.482Z,8.90
2023-12-26T03:33:49.550Z,8.90
2023-12-26T03:36:20.214Z,8.90
2023-12-26T03:38:51.392Z,8.90
2023-12-26T03:41:23.600Z,8.90
2023-12-26T03:43:54.648Z,8.90
2023-12-26T03:46:25.509Z,8.90
2023-12-26T03:48:56.797Z,8.90
2023-12-26T03:51:27.514Z,9.00
2023-12-26T03:53:59.024Z,9.00
2023-12-26T03:56:34.585Z,8.90
2023-12-26T03:59:06.741Z,8.90
2023-12-26T04:01:37.554Z,9.00
2023-12-26T04:04:08.574Z,9.00
2023-12-26T04:06:39.383Z,9.10
2023-12-26T04:09:11.005Z,9.10
2023-12-26T04:11:44.470Z,9.30
2023-12-26T04:14:16.367Z,9.40
2023-12-26T04:16:46.917Z,9.30
2023-12-26T04:19:18.197Z,9.40
2023-12-26T04:21:49.143Z,9.30
2023-12-26T04:24:20.254Z,9.40
2023-12-26T04:26:52.610Z,9.30
2023-12-26T04:29:23.944Z,9.40
2023-12-26T04:31:54.934Z,9.40
2023-12-26T04:34:27.930Z,9.40
2023-12-26T04:36:58.983Z,9.50
2023-12-26T04:39:30.273Z,9.50
2023-12-26T04:42:06.300Z,9.50
2023-12-26T04:44:37.686Z,9.60
2023-12-26T04:47:08.765Z,9.50
2023-12-26T04:49:40.368Z,9.60
2023-12-26T04:52:11.093Z,9.50
2023-12-26T04:54:43.591Z,9.50
2023-12-26T04:57:17.069Z,9.60
2023-12-26T04:59:48.621Z,9.70
2023-12-26T05:02:23.145Z,9.80
2023-12-26T05:04:54.224Z,9.80
2023-12-26T05:07:25.068Z,9.80
2023-12-26T05:09:59.226Z,9.80
2023-12-26T05:12:31.921Z,9.90
2023-12-26T05:15:04.522Z,9.90
2023-12-26T05:17:36.420Z,9.80
2023-12-26T05:20:15.877Z,9.90
2023-12-26T05:22:58.116Z,9.90
2023-12-26T05:25:29.814Z,9.90
2023-12-26T05:28:02.389Z,9.90
2023-12-26T05:30:34.257Z,9.90
2023-12-26T05:33:05.759Z,9.80
2023-12-26T05:35:38.455Z,9.80
2023-12-26T05:38:09.733Z,9.80
2023-12-26T05:40:43.722Z,9.70
2023-12-26T05:43:15.831Z,9.80
2023-12-26T05:45:47.856Z,9.70
2023-12-26T05:48:19.392Z,9.70
2023-12-26T05:50:51.947Z,9.70
2023-12-26T05:53:24.187Z,9.80
2023-12-26T05:55:56.813Z,9.90
2023-12-26T05:58:31.949Z,9.90
2023-12-26T06:01:04.530Z,9.90
2023-12-26T06:03:38.269Z,10.00
2023-12-26T06:06:15.225Z,10.10
2023-12-26T06:08:48.655Z,10.10
2023-12-26T06:11:22.449Z,10.10
2023-12-26T06:13:54.404Z,9.90
2023-12-26T06:16:25.609Z,10.00
2023-12-26T06:18:57.287Z,10.00
2023-12-26T06:21:28.930Z,10.10
2023-12-26T06:23:59.683Z,10.20
2023-12-26T06:26:31.040Z,10.10
2023-12-26T06:29:03.588Z,10.10
2023-12-26T06:31:34.683Z,10.10
2023-12-26T06:34:05.618Z,10.00
2023-12-26T06:36:36.828Z,10.00
2023-12-26T06:39:07.895Z,10.00
2023-12-26T06:41:44.495Z,10.00
2023-12-26T06:44:17.110Z,9.90
2023-12-26T06:46:49.483Z,10.00
2023-12-26T06:49:20.773Z,10.00
2023-12-26T06:51:55.468Z,10.00
2023-12-26T06:54:27.903Z,10.00
2023-12-26T06:57:06.990Z,10.00
2023-12-26T06:59:41.313Z,9.90
2023-12-26T07:02:14.657Z,10.00
2023-12-26T07:04:51.085Z,10.00
2023-12-26T07:07:24.764Z,10.00
2023-12-26T07:09:58.417Z,10.10
2023-12-26T07:12:30.766Z,10.20
2023-12-26T07:15:03.445Z,10.10
2023-12-26T07:17:40.732Z,10.20
2023-12-26T07:20:14.703Z,10.20
2023-12-26T07:22:45.894Z,10.20
2023-12-26T07:25:19.584Z,10.20
2023-12-26T07:27:52.766Z,10.20
2023-12-26T07:30:25.164Z,10.30
2023-12-26T07:32:56.747Z,10.30
2023-12-26T07:35:27.578Z,10.20
2023-12-26T07:37:58.620Z,10.20
2023-12-26T07:40:29.791Z,10.30
2023-12-26T07:43:01.736Z,10.30
2023-12-26T07:45:36.055Z,10.20
2023-12-26T07:48:12.122Z,10.30
2023-12-26T07:50:43.392Z,10.40
2023-12-26T07:53:15.189Z,10.30
2023-12-26T07:55:48.543Z,10.30
2023-12-26T07:58:20.583Z,10.30
2023-12-26T08:00:54.109Z,10.30
2023-12-26T08:03:27.762Z,10.40
2023-12-26T08:05:58.882Z,10.40
2023-12-26T08:08:32.104Z,10.50
2023-12-26T08:11:03.357Z,10.50
2023-12-26T08:13:34.741Z,10.50
2023-12-26T08:16:10.035Z,10.50
2023-12-26T08:18:42.158Z,10.60
2023-12-26T08:21:13.175Z,10.70
2023-12-26T08:23:44.809Z,10.60
2023-12-26T08:26:17.227Z,10.70
2023-12-26T08:28:49.763Z,10.70
2023-12-26T08:31:23.213Z,10.80
2023-12-26T08:33:54.307Z,10.80
2023-12-26T08:36:26.733Z,10.80
2023-12-26T08:38:57.919Z,10.90
2023-12-26T08:41:31.045Z,11.00
2023-12-26T08:44:04.386Z,10.90
2023-12-26T08:46:37.365Z,10.90
2023-12-26T08:49:08.677Z,10.90
2023-12-26T08:51:42.840Z,11.00
2023-12-26T08:54:16.322Z,11.00
2023-12-26T08:56:47.312Z,10.90
2023-12-26T08:59:20.761Z,11.00
2023-12-26T09:01:55.726Z,11.00
2023-12-26T09:04:28.068Z,11.10
2023-12-26T09:06:59.409Z,11.10
2023-12-26T09:09:31.485Z,11.00
2023-12-26T09:12:02.098Z,11.20
2023-12-26T09:14:33.316Z,11.10
2023-12-26T09:17:08.660Z,11.10
2023-12-26T09:19:40.094Z,11.20
2023-12-26T09:22:11.170Z,11.30
2023-12-26T09:24:45.361Z,11.40
2023-12-26T09:27:16.306Z,11.30
2023-12-26T09:29:47.587Z,11.40
2023-12-26T09:32:20.136Z,11.50
2023-12-26T09:34:51.528Z,11.60
2023-12-26T09:37:21.509Z,11.50
2023-12-26T09:39:52.767Z,11.50
2023-12-26T09:42:25.543Z,11.50
2023-12-26T09:44:56.616Z,11.50
2023-12-26T09:47:30.181Z,11.60
2023-12-26T09:50:03.304Z,11.50
2023-12-26T09:52:36.929Z,11.50
2023-12-26T09:55:09.064Z,11.50
2023-12-26T09:57:41.581Z,11.50
2023-12-26T10:00:15.144Z,11.50
2023-12-26T10:02:47.606Z,11.50
2023-12-26T10:05:19.489Z,11.60
2023-12-26T10:07:50.497Z,11.60
2023-12-26T10:10:22.524Z,11.50
2023-12-26T10:12:53.931Z,11.50
2023-12-26T10:15:25.396Z,11.60
2023-12-26T10:17:58.782Z,11.40
2023-12-26T10:20:36.365Z,11.40
2023-12-26T10:23:07.340Z,11.30
2023-12-26T10:25:38.720Z,11.40
2023-12-26T10:28:09.575Z,11.50
2023-12-26T10:30:41.071Z,11.40
2023-12-26T10:33:13.298Z,11.30
2023-12-26T10:35:44.719Z,11.40
2023-12-26T10:38:15.633Z,11.40
2023-12-26T10:40:46.899Z,11.40
2023-12-26T10:43:17.768Z,11.30
2023-12-26T10:45:50.226Z,11.30
2023-12-26T10:48:23.195Z,11.20
2023-12-26T10:50:54.647Z,11.20
2023-12-26T10:53:34.030Z,11.10
2023-12-26T10:56:07.395Z,10.80
2023-12-26T10:58:40.173Z,9.70
2023-12-26T11:01:11.790Z,9.30
2023-12-26T11:03:44.007Z,9.30
2023-12-26T11:06:15.007Z,9.30
2023-12-26T11:08:46.520Z,9.30
2023-12-26T11:11:16.707Z,9.30
2023-12-26T11:13:48.453Z,9.30
2023-12-26T11:16:18.849Z,9.30
2023-12-26T11:18:52.083Z,9.30
2023-12-26T11:21:22.451Z,9.30
2023-12-26T11:23:53.204Z,9.40
2023-12-26T11:26:23.400Z,9.50
2023-12-26T11:28:54.151Z,9.60
2023-12-26T11:31:24.666Z,9.70
2023-12-26T11:33:57.167Z,9.60
2023-12-26T11:36:27.407Z,9.70
2023-12-26T11:38:58.136Z,9.70
2023-12-26T11:41:28.621Z,9.50
2023-12-26T11:43:59.548Z,9.50
2023-12-26T11:46:29.948Z,9.50
2023-12-26T11:49:02.990Z,9.60
2023-12-26T11:51:33.488Z,9.50
2023-12-26T11:54:05.059Z,9.60
2023-12-26T11:56:35.550Z,9.60
2023-12-26T11:59:06.589Z,9.60
2023-12-26T12:01:36.699Z,9.60
2023-12-26T12:04:09.457Z,9.50
2023-12-26T12:06:44.473Z,9.50
2023-12-26T12:09:26.037Z,9.50
2023-12-26T12:12:01.076Z,9.60
2023-12-26T12:14:37.177Z,9.60
2023-12-26T12:17:14.053Z,9.60
2023-12-26T12:19:48.763Z,9.70
2023-12-26T12:22:25.888Z,9.60
2023-12-26T12:25:00.163Z,9.50
2023-12-26T12:27:31.967Z,9.60
2023-12-26T12:30:08.521Z,9.50
2023-12-26T12:32:40.441Z,9.50
2023-12-26T12:35:23.103Z,9.40
2023-12-26T12:37:57.003Z,9.60
2023-12-26T12:40:28.772Z,9.50
2023-12-26T12:43:00.660Z,9.50
2023-12-26T12:45:32.175Z,9.40
2023-12-26T12:48:06.259Z,9.40
2023-12-26T12:50:39.435Z,9.50
2023-12-26T12:53:11.832Z,9.50
2023-12-26T12:55:45.861Z,9.40
2023-12-26T12:58:17.028Z,9.40
2023-12-26T13:00:49.587Z,9.40
2023-12-26T13:03:26.184Z,9.30
2023-12-26T13:06:04.498Z,9.20
2023-12-26T13:08:36.759Z,9.40
2023-12-26T13:11:10.518Z,9.50
2023-12-26T13:13:43.695Z,9.50
2023-12-26T13:16:15.207Z,9.50
2023-12-26T13:18:46.619Z,9.40
2023-12-26T13:21:24.733Z,9.40
2023-12-26T13:23:55.870Z,9.40
2023-12-26T13:26:27.079Z,9.40
2023-12-26T13:28:57.586Z,9.40
2023-12-26T13:31:29.896Z,9.30
2023-12-26T13:34:00.748Z,9.40
2023-12-26T13:36:33.961Z,9.40
2023-12-26T13:39:06.071Z,9.20
2023-12-26T13:41:38.307Z,9.20
2023-12-26T13:44:16.674Z,9.10
2023-12-26T13:46:50.129Z,9.10
2023-12-26T13:49:27.385Z,9.10
2023-12-26T13:52:00.762Z,9.00
2023-12-26T13:54:34.339Z,8.90
2023-12-26T13:57:08.181Z,9.00
2023-12-26T13:59:40.953Z,8.90
2023-12-26T14:02:11.739Z,9.00
2023-12-26T14:04:43.345Z,8.90
2023-12-26T14:07:16.065Z,8.70
2023-12-26T14:09:48.185Z,8.80
2023-12-26T14:12:19.383Z,8.80
2023-12-26T14:14:51.358Z,8.90
2023-12-26T14:17:22.219Z,8.90
2023-12-26T14:19:55.334Z,8.90
2023-12-26T14:22:27.595Z,9.00
2023-12-26T14:24:59.437Z,8.90
2023-12-26T14:27:30.394Z,9.00
2023-12-26T14:30:03.028Z,8.90
2023-12-26T14:32:37.710Z,8.60
2023-12-26T14:35:09.131Z,8.40
2023-12-26T14:37:43.708Z,8.40
2023-12-26T14:40:15.061Z,8.40
2023-12-26T14:42:46.895Z,8.20
2023-12-26T14:45:18.147Z,8.20
2023-12-26T14:47:49.852Z,8.20
2023-12-26T14:50:22.709Z,8.20
2023-12-26T14:52:58.036Z,8.30
2023-12-26T14:55:31.310Z,8.30
2023-12-26T14:58:07.669Z,8.20
2023-12-26T15:00:40.332Z,8.20
2023-12-26T15:03:15.607Z,8.10
2023-12-26T15:05:49.930Z,8.10
2023-12-26T15:08:23.477Z,8.10
2023-12-26T15:11:02.077Z,8.10
2023-12-26T15:13:48.850Z,8.10
2023-12-26T15:16:28.325Z,7.90
2023-12-26T15:19:04.891Z,7.70
2023-12-26T15:21:53.150Z,7.70
2023-12-26T15:24:29.184Z,7.60
2023-12-26T15:27:01.266Z,7.80
2023-12-26T15:29:34.612Z,7.80
2023-12-26T15:32:14.480Z,7.80
2023-12-26T15:34:47.270Z,7.70
2023-12-26T15:37:20.126Z,7.80
2023-12-26T15:39:53.479Z,7.70
2023-12-26T15:42:29.976Z,7.70
2023-12-26T15:45:02.811Z,7.70
2023-12-26T15:47:45.133Z,7.70
2023-12-26T15:50:20.979Z,7.60
2023-12-26T15:52:59.348Z,7.60
2023-12-26T15:55:37.706Z,7.60
2023-12-26T15:58:20.499Z,7.60
2023-12-26T16:01:03.243Z,7.50
2023-12-26T16:03:42.404Z,7.50
2023-12-26T16:06:24.320Z,7.40
2023-12-26T16:08:59.935Z,7.50
2023-12-26T16:11:46.664Z,7.50
2023-12-26T16:14:31.308Z,7.40
2023-12-26T16:17:03.388Z,7.20
2023-12-26T16:19:37.988Z,7.10
2023-12-26T16:22:10.507Z,7.00
2023-12-26T16:24:45.156Z,6.90
2023-12-26T16:27:31.979Z,7.00
2023-12-26T16:30:11.859Z,6.90
2023-12-26T16:32:49.737Z,6.90
2023-12-26T16:35:26.002Z,6.80
2023-12-26T16:38:04.080Z,6.80
2023-12-26T16:40:47.691Z,6.70
2023-12-26T16:43:30.276Z,6.60
2023-12-26T16:46:10.065Z,6.60
2023-12-26T16:48:42.692Z,6.50
2023-12-26T16:51:14.470Z,6.40
2023-12-26T16:53:45.418Z,6.30
2023-12-26T16:56:16.457Z,6.30
2023-12-26T16:58:48.745Z,6.20
2023-12-26T17:01:20.086Z,6.30
2023-12-26T17:03:50.958Z,6.40
2023-12-26T17:06:22.325Z,6.50
2023-12-26T17:08:53.308Z,6.40
2023-12-26T17:11:24.536Z,6.50
2023-12-26T17:13:56.890Z,6.60
2023-12-26T17:16:28.164Z,6.50
2023-12-26T17:18:59.094Z,6.60
2023-12-26T17:21:30.479Z,6.50
2023-12-26T17:24:04.095Z,6.60
2023-12-26T17:26:35.333Z,6.70
2023-12-26T17:29:07.435Z,6.60
2023-12-26T17:31:38.584Z,6.70
2023-12-26T17:34:09.680Z,6.80
2023-12-26T17:36:41.098Z,6.80
2023-12-26T17:39:14.613Z,6.70
2023-12-26T17:41:46.966Z,6.50
2023-12-26T17:44:19.660Z,6.60
2023-12-26T17:46:51.629Z,6.50
2023-12-26T17:49:23.157Z,6.50
2023-12-26T17:51:55.616Z,6.40
2023-12-26T17:54:26.823Z,6.40
2023-12-26T17:56:58.766Z,6.20
2023-12-26T17:59:31.352Z,6.30
2023-12-26T18:02:08.474Z,6.30
2023-12-26T18:04:39.497Z,6.10
2023-12-26T18:07:11.619Z,6.00
2023-12-26T18:09:42.576Z,6.00
2023-12-26T18:12:13.821Z,5.80
2023-12-26T18:14:56.029Z,5.70
2023-12-26T18:17:28.780Z,5.70
2023-12-26T18:20:00.126Z,5.70
2023-12-26T18:22:31.496Z,5.60
2023-12-26T18:25:06.400Z,5.50
2023-12-26T18:27:43.388Z,5.50
2023-12-26T18:30:27.565Z,5.70
2023-12-26T18:33:00.760Z,6.10
2023-12-26T18:35:35.076Z,6.30
2023-12-26T18:38:08.223Z,6.30
2023-12-26T18:40:40.834Z,6.20
2023-12-26T18:43:20.041Z,6.20
2023-12-26T18:45:53.573Z,6.30
2023-12-26T18:48:28.928Z,6.20
2023-12-26T18:51:00.034Z,6.10
2023-12-26T18:53:32.764Z,5.90
2023-12-26T18:56:04.102Z,5.90
2023-12-26T18:58:36.223Z,5.90
2023-12-26T19:01:08.831Z,6.20
2023-12-26T19:03:43.690Z,5.90
2023-12-26T19:06:14.838Z,6.00
2023-12-26T19:08:46.559Z,6.00
2023-12-26T19:11:18.773Z,5.90
2023-12-26T19:13:53.980Z,6.10
2023-12-26T19:16:26.425Z,6.10
2023-12-26T19:18:58.709Z,6.10
2023-12-26T19:21:29.745Z,6.00
2023-12-26T19:24:01.842Z,6.00
2023-12-26T19:26:33.269Z,6.00
2023-12-26T19:29:07.662Z,5.70
2023-12-26T19:31:41.999Z,5.80
2023-12-26T19:34:19.440Z,5.70
2023-12-26T19:36:51.659Z,5.50
2023-12-26T19:39:24.932Z,5.60
2023-12-26T19:41:57.169Z,5.40
2023-12-26T19:44:31.812Z,5.30
2023-12-26T19:47:44.566Z,5.30
2023-12-26T19:50:19.253Z,5.50
2023-12-26T19:52:51.112Z,5.80
2023-12-26T19:55:23.127Z,6.00
2023-12-26T19:58:01.021Z,6.00
2023-12-26T20:00:36.070Z,6.10
2023-12-26T20:03:18.665Z,6.20
2023-12-26T20:05:59.771Z,6.20
2023-12-26T20:08:31.761Z,6.30
2023-12-26T20:11:03.093Z,6.00
2023-12-26T20:13:35.427Z,6.30
2023-12-26T20:16:07.157Z,6.20
2023-12-26T20:18:42.859Z,6.40
2023-12-26T20:21:14.231Z,6.50
2023-12-26T20:23:45.472Z,6.60
2023-12-26T20:26:18.049Z,6.50
2023-12-26T20:28:49.047Z,6.60
2023-12-26T20:31:20.431Z,6.60
2023-12-26T20:33:53.928Z,6.50
2023-12-26T20:36:25.479Z,6.60
2023-12-26T20:38:56.812Z,6.50
2023-12-26T20:41:28.153Z,6.60
2023-12-26T20:43:59.219Z,6.70
2023-12-26T20:46:30.872Z,6.70
2023-12-26T20:49:05.035Z,6.80
2023-12-26T20:51:38.404Z,6.90
2023-12-26T20:54:12.730Z,6.80
2023-12-26T20:56:45.757Z,6.80
2023-12-26T20:59:16.899Z,6.90
2023-12-26T21:01:49.071Z,6.90
2023-12-26T21:04:21.788Z,6.90
2023-12-26T21:06:53.607Z,6.70
2023-12-26T21:09:24.598Z,6.80
2023-12-26T21:11:55.686Z,6.80
2023-12-26T21:14:33.107Z,7.00
2023-12-26T21:17:06.482Z,6.90
2023-12-26T21:19:40.345Z,6.80
2023-12-26T21:22:11.635Z,6.80
2023-12-26T21:24:42.425Z,7.10
2023-12-26T21:27:13.782Z,7.10
2023-12-26T21:29:44.714Z,7.00
2023-12-26T21:32:15.772Z,6.80
2023-12-26T21:34:48.413Z,7.10
2023-12-26T21:37:19.560Z,6.90
2023-12-26T21:39:50.407Z,7.00
2023-12-26T21:42:21.499Z,7.10
2023-12-26T21:44:52.175Z,7.00
2023-12-26T21:47:25.350Z,7.10
2023-12-26T21:49:59.220Z,7.20
2023-12-26T21:52:32.221Z,7.20
2023-12-26T21:55:04.635Z,7.20
2023-12-26T21:57:35.766Z,7.10
2023-12-26T22:00:09.824Z,7.30
2023-12-26T22:02:43.985Z,7.30
2023-12-26T22:05:19.292Z,7.10
2023-12-26T22:07:50.590Z,7.10
2023-12-26T22:10:21.616Z,6.90
2023-12-26T22:12:53.110Z,6.90
2023-12-26T22:15:24.698Z,7.00
2023-12-26T22:17:56.254Z,6.90
2023-12-26T22:20:28.954Z,7.10
2023-12-26T22:23:00.026Z,7.10
2023-12-26T22:25:30.915Z,7.00
2023-12-26T22:28:02.239Z,7.10
2023-12-26T22:30:33.950Z,7.10
2023-12-26T22:33:05.917Z,7.00
2023-12-26T22:35:40.837Z,7.00
2023-12-26T22:38:12.088Z,6.90
2023-12-26T22:40:42.706Z,6.80
2023-12-26T22:43:14.064Z,6.70
2023-12-26T22:45:44.772Z,6.70
2023-12-26T22:48:15.911Z,6.60
2023-12-26T22:50:48.192Z,6.50
2023-12-26T22:53:19.313Z,6.60
2023-12-26T22:55:50.021Z,6.60
2023-12-26T22:58:21.137Z,6.50
2023-12-26T23:00:53.241Z,6.60
2023-12-26T23:03:24.488Z,6.60
2023-12-26T23:05:56.884Z,6.40
2023-12-26T23:08:27.929Z,6.60
2023-12-26T23:10:58.788Z,6.60
2023-12-26T23:13:29.834Z,7.10
2023-12-26T23:16:06.258Z,6.90
2023-12-26T23:18:37.554Z,6.80
2023-12-26T23:21:18.811Z,6.50
2023-12-26T23:23:50.592Z,6.10
2023-12-26T23:26:22.718Z,5.80
2023-12-26T23:28:53.653Z,5.90
2023-12-26T23:31:24.724Z,6.00
2023-12-26T23:33:55.824Z,5.80
2023-12-26T23:36:28.013Z,5.30
2023-12-26T23:38:59.164Z,5.30
2023-12-26T23:41:29.826Z,5.60
2023-12-26T23:44:01.093Z,5.50
2023-12-26T23:46:32.147Z,5.60
2023-12-26T23:49:03.395Z,5.70
2023-12-26T23:51:37.083Z,5.80
2023-12-26T23:54:08.452Z,5.80
2023-12-26T23:56:39.257Z,5.70
2023-12-26T23:59:10.401Z,5.70
